67TA weather

Public forecast

Using degrees Fahrenheit for public forecast. Weather courtesy of forecast.io.

Closest aviation weather report (METAR) to Tips Jewels Heliport

Closest report is San Antonio International Airport, 7.4 nm (13.7 km) S. Retrieved 2020/08/13 16:51 UTC (38 minutes ago):

KSAT 131651Z 18010KT 10SM FEW250 33/20 A3001 RMK AO2 SLP143 T03280200

Closest aviation forecast (TAF) to Tips Jewels Heliport

Closest forecast is San Antonio International Airport, 7.4 nm (13.7 km) S. Retrieved 2020/08/13 12:36 UTC (5 hours ago):

TAF KSAT 131132Z 1312/1418 17006KT P6SM SCT015 TEMPO 1313/1315 BKN015 FM131500 19010G18KT P6SM FEW050 FM132100 16010KT P6SM FEW070 FM140300 15015KT P6SM SKC